Página principal
METAR-TAF:

METAR-TAF

Aeroportos :

Aeroporto Internacional de Pittsburgh

Pittsburgh, Pensilvânia, Estados Unidos

latitude: 40-30-14N, longitude: 080-15-59W, altura: 366 m

Observação actual do tempo

O boletim foi feito há 15 minutos, às 18:51 UTC
Vento 19 kt de oeste com rajadas de 28 kt
Temperatura 13°C
Humidade 44%
Pressão 1019 hPa
Visibilidade: 16.1 km
Nuvens dispersasa uma altura de 5000 ft
Nuvens fragmentadasa uma altura de 7000 ft

METAR: KPIT 171851Z 26019G28KT 10SM SCT050 BKN070 13/01 A3008 RMK AO2 PK WND 27031/1833 SLP195 T01280011

Hora: 15:06 (19:06 UTC)

Previsão

O boletim foi feito há 51 minutos, às 18:15 UTC
Previsão válida de 17 às 18 UTC a 18 às 24 UTC
Vento 12 kt de oeste com rajadas de 24 kt
Visibilidade: 10 km
Nuvens fragmentadasa uma altura de 4500 ft
A partir de 18 às 0200 UTC
Vento 9 kt de oes-noroeste
Visibilidade: 10 km
Nuvens dispersasa uma altura de 3000 ft

TAF: KPIT 171815Z 1718/1824 27012G24KT P6SM BKN045 FM180200 30009KT P6SM SCT030

Observações e previsões do tempo de mais de 4000 aeroportos (mensagens METAR e TAF).

As estações disponíveis são os pontos amarelos e vermelhos sobre o mapa.

Mova o rato sobre o mapa para ver o nome da estação.

Depois clique no ponto para visualizar as observações e previsões meteorológicas.

Para alterar o mapa : clique nos botões verdes com uma cruz preta para aumentar o zoom; no botão verde com uma pitada de zoom; ou nas setas verdes para mapas adjacentes.


METAR-TAF: